createdAt,value
2018-07-16T00:00:43.717Z,22.31
2018-07-16T00:03:12.930Z,22.22
2018-07-16T00:05:42.087Z,22.18
2018-07-16T00:08:11.480Z,22.20
2018-07-16T00:10:40.755Z,22.17
2018-07-16T00:13:10.059Z,22.06
2018-07-16T00:15:39.426Z,21.98
2018-07-16T00:18:08.657Z,21.78
2018-07-16T00:20:37.948Z,21.50
2018-07-16T00:23:07.329Z,21.21
2018-07-16T00:25:36.488Z,21.01
2018-07-16T00:28:05.958Z,21.19
2018-07-16T00:30:35.201Z,20.93
2018-07-16T00:33:04.472Z,21.12
2018-07-16T00:35:33.794Z,20.79
2018-07-16T00:38:03.037Z,21.21
2018-07-16T00:40:32.211Z,21.06
2018-07-16T00:43:01.462Z,20.96
2018-07-16T00:45:30.685Z,21.27
2018-07-16T00:47:59.985Z,21.31
2018-07-16T00:50:29.267Z,21.18
2018-07-16T00:52:58.560Z,21.41
2018-07-16T00:55:27.819Z,21.59
2018-07-16T00:57:57.058Z,21.79
2018-07-16T01:00:26.218Z,21.89
2018-07-16T01:02:55.473Z,22.01
2018-07-16T01:05:24.718Z,22.09
2018-07-16T01:07:53.959Z,22.18
2018-07-16T01:10:23.221Z,22.24
2018-07-16T01:12:52.553Z,22.27
2018-07-16T01:15:21.822Z,22.30
2018-07-16T01:17:51.074Z,22.33
2018-07-16T01:20:20.389Z,22.36
2018-07-16T01:22:49.641Z,22.38
2018-07-16T01:25:19.018Z,22.38
2018-07-16T01:27:48.301Z,22.38
2018-07-16T01:30:17.521Z,22.41
2018-07-16T01:32:46.766Z,22.46
2018-07-16T01:35:16.043Z,22.46
2018-07-16T01:37:45.549Z,22.46
2018-07-16T01:40:14.855Z,22.47
2018-07-16T01:42:44.307Z,22.47
2018-07-16T01:45:13.507Z,22.47
2018-07-16T01:47:42.777Z,22.47
2018-07-16T01:50:12.027Z,22.48
2018-07-16T01:52:41.478Z,22.45
2018-07-16T01:55:10.971Z,22.36
2018-07-16T01:57:40.274Z,22.38
2018-07-16T02:00:09.532Z,22.34
2018-07-16T02:02:38.842Z,22.29
2018-07-16T02:05:07.909Z,22.23
2018-07-16T02:07:37.214Z,22.17
2018-07-16T02:10:06.487Z,22.17
2018-07-16T02:12:35.823Z,22.13
2018-07-16T02:15:05.047Z,22.17
2018-07-16T02:17:34.665Z,22.03
2018-07-16T02:20:05.606Z,21.98
2018-07-16T02:22:35.107Z,22.03
2018-07-16T02:25:04.418Z,22.08
2018-07-16T02:27:33.782Z,22.13
2018-07-16T02:30:03.128Z,22.16
2018-07-16T02:32:32.485Z,22.18
2018-07-16T02:35:01.825Z,22.17
2018-07-16T02:37:31.082Z,22.15
2018-07-16T02:40:00.428Z,22.06
2018-07-16T02:42:29.887Z,21.96
2018-07-16T02:44:59.224Z,22.05
2018-07-16T02:47:28.406Z,22.07
2018-07-16T02:49:57.629Z,22.05
2018-07-16T02:52:27.000Z,22.07
2018-07-16T02:54:56.455Z,22.12
2018-07-16T02:57:25.810Z,22.10
2018-07-16T02:59:54.923Z,22.09
2018-07-16T03:02:24.294Z,22.06
2018-07-16T03:04:53.565Z,22.06
2018-07-16T03:07:22.833Z,21.96
2018-07-16T03:09:52.127Z,21.94
2018-07-16T03:12:21.498Z,21.83
2018-07-16T03:14:50.854Z,21.82
2018-07-16T03:17:20.094Z,21.84
2018-07-16T03:19:49.413Z,21.87
2018-07-16T03:22:18.591Z,21.81
2018-07-16T03:24:47.954Z,21.47
2018-07-16T03:27:17.315Z,21.36
2018-07-16T03:29:46.533Z,21.48
2018-07-16T03:32:15.834Z,21.45
2018-07-16T03:34:45.253Z,21.19
2018-07-16T03:37:14.522Z,20.85
2018-07-16T03:39:43.851Z,20.99
2018-07-16T03:42:13.111Z,21.08
2018-07-16T03:44:42.509Z,21.07
2018-07-16T03:47:11.902Z,20.79
2018-07-16T03:49:41.255Z,20.83
2018-07-16T03:52:10.770Z,20.69
2018-07-16T03:54:40.075Z,20.55
2018-07-16T03:57:09.766Z,20.65
2018-07-16T03:59:39.472Z,20.65
2018-07-16T04:02:08.850Z,20.76
2018-07-16T04:04:38.082Z,20.91
2018-07-16T04:07:07.635Z,20.99
2018-07-16T04:09:36.861Z,20.89
2018-07-16T04:12:06.256Z,20.53
2018-07-16T04:14:35.483Z,20.48
2018-07-16T04:17:04.737Z,20.74
2018-07-16T04:19:34.079Z,20.89
2018-07-16T04:22:03.385Z,21.04
2018-07-16T04:24:32.732Z,21.16
2018-07-16T04:27:02.060Z,21.16
2018-07-16T04:29:31.308Z,21.26
2018-07-16T04:32:00.675Z,21.38
2018-07-16T04:34:30.008Z,21.48
2018-07-16T04:36:59.191Z,21.50
2018-07-16T04:39:28.486Z,21.64
2018-07-16T04:41:57.846Z,21.79
2018-07-16T04:44:27.114Z,21.99
2018-07-16T04:46:56.340Z,22.10
2018-07-16T04:49:25.593Z,22.06
2018-07-16T04:51:54.854Z,22.10
2018-07-16T04:54:24.200Z,22.27
2018-07-16T04:56:53.487Z,22.17
2018-07-16T04:59:22.994Z,22.32
2018-07-16T05:01:52.343Z,22.47
2018-07-16T05:04:21.713Z,21.92
2018-07-16T05:06:50.942Z,21.94
2018-07-16T05:09:20.204Z,22.29
2018-07-16T05:11:49.484Z,22.53
2018-07-16T05:14:18.817Z,22.66
2018-07-16T05:16:50.023Z,22.73
2018-07-16T05:19:19.441Z,22.71
2018-07-16T05:21:48.822Z,22.74
2018-07-16T05:24:18.471Z,22.28
2018-07-16T05:26:47.642Z,22.13
2018-07-16T05:29:16.970Z,21.98
2018-07-16T05:31:46.461Z,21.43
2018-07-16T05:34:15.805Z,20.79
2018-07-16T05:36:45.069Z,20.85
2018-07-16T05:39:14.253Z,21.02
2018-07-16T05:41:43.566Z,21.26
2018-07-16T05:44:13.026Z,20.94
2018-07-16T05:46:42.489Z,21.34
2018-07-16T05:49:12.340Z,22.46
2018-07-16T05:51:41.680Z,22.42
2018-07-16T05:54:11.286Z,21.10
2018-07-16T05:56:40.913Z,21.03
2018-07-16T05:59:10.074Z,20.57
2018-07-16T06:01:39.320Z,21.23
2018-07-16T06:04:08.701Z,21.89
2018-07-16T06:06:38.207Z,22.56
2018-07-16T06:09:07.938Z,24.54
2018-07-16T06:11:38.060Z,23.60
2018-07-16T06:14:07.455Z,21.69
2018-07-16T06:16:37.256Z,21.83
2018-07-16T06:19:06.950Z,23.26
2018-07-16T06:21:36.390Z,24.79
2018-07-16T06:24:05.898Z,25.41
2018-07-16T06:26:35.238Z,24.87
2018-07-16T06:29:04.526Z,24.78
2018-07-16T06:31:34.026Z,23.91
2018-07-16T06:34:03.340Z,23.54
2018-07-16T06:36:32.795Z,23.84
2018-07-16T06:39:08.336Z,24.22
2018-07-16T06:41:37.923Z,23.39
2018-07-16T06:44:07.591Z,23.73
2018-07-16T06:46:36.869Z,23.20
2018-07-16T06:49:06.127Z,23.76
2018-07-16T06:51:35.468Z,24.22
2018-07-16T06:54:05.022Z,23.57
2018-07-16T06:56:34.446Z,23.96
2018-07-16T06:59:04.326Z,24.38
2018-07-16T07:01:33.586Z,24.11
2018-07-16T07:04:02.842Z,23.73
2018-07-16T07:06:33.476Z,22.88
2018-07-16T07:09:02.815Z,23.74
2018-07-16T07:11:32.211Z,23.17
2018-07-16T07:14:01.482Z,23.22
2018-07-16T07:16:31.406Z,23.02
2018-07-16T07:19:00.913Z,23.80
2018-07-16T07:21:30.230Z,22.83
2018-07-16T07:23:59.535Z,22.89
2018-07-16T07:26:29.161Z,23.66
2018-07-16T07:28:58.388Z,23.69
2018-07-16T07:31:27.737Z,23.45
2018-07-16T07:33:57.743Z,23.47
2018-07-16T07:36:27.064Z,24.58
2018-07-16T07:38:56.423Z,25.85
2018-07-16T07:41:25.627Z,25.12
2018-07-16T07:43:55.055Z,25.72
2018-07-16T07:46:24.465Z,26.63
2018-07-16T07:48:53.730Z,25.96
2018-07-16T07:51:23.058Z,25.32
2018-07-16T07:53:52.398Z,26.26
2018-07-16T07:56:22.003Z,24.92
2018-07-16T07:58:51.330Z,24.98
2018-07-16T08:01:20.585Z,26.03
2018-07-16T08:03:50.182Z,25.55
2018-07-16T08:06:20.436Z,26.74
2018-07-16T08:08:49.776Z,26.44
2018-07-16T08:11:19.327Z,26.27
2018-07-16T08:13:48.763Z,27.58
2018-07-16T08:16:18.526Z,27.79
2018-07-16T08:18:47.810Z,27.60
2018-07-16T08:21:17.257Z,25.58
2018-07-16T08:23:46.471Z,25.47
2018-07-16T08:26:15.828Z,25.38
2018-07-16T08:28:45.095Z,25.97
2018-07-16T08:31:14.331Z,26.22
2018-07-16T08:33:43.742Z,27.39
2018-07-16T08:36:13.135Z,27.90
2018-07-16T08:38:42.527Z,28.03
2018-07-16T08:41:11.946Z,27.05
2018-07-16T08:43:41.339Z,28.28
2018-07-16T08:46:10.809Z,28.91
2018-07-16T08:48:40.116Z,29.27
2018-07-16T08:51:09.438Z,29.16
2018-07-16T08:53:38.706Z,28.24
2018-07-16T08:56:08.062Z,29.36
2018-07-16T08:58:37.303Z,28.14
2018-07-16T09:01:06.683Z,27.60
2018-07-16T09:03:35.926Z,28.11
2018-07-16T09:06:06.249Z,28.40
2018-07-16T09:08:36.526Z,28.41
2018-07-16T09:11:06.049Z,28.60
2018-07-16T09:13:35.325Z,29.69
2018-07-16T09:16:04.720Z,30.26
2018-07-16T09:18:34.087Z,29.10
2018-07-16T09:21:03.516Z,28.98
2018-07-16T09:23:32.885Z,30.38
2018-07-16T09:26:02.178Z,30.78
2018-07-16T09:28:31.486Z,30.93
2018-07-16T09:31:00.719Z,30.18
2018-07-16T09:33:30.116Z,29.14
2018-07-16T09:35:59.524Z,29.71
2018-07-16T09:38:28.796Z,30.45
2018-07-16T09:40:58.242Z,30.82
2018-07-16T09:43:27.601Z,31.59
2018-07-16T09:45:56.829Z,32.31
2018-07-16T09:48:26.257Z,29.67
2018-07-16T09:50:55.518Z,28.87
2018-07-16T09:53:24.837Z,29.67
2018-07-16T09:55:54.214Z,30.82
2018-07-16T09:58:23.635Z,30.97
2018-07-16T10:00:58.130Z,31.44
2018-07-16T10:03:27.344Z,32.07
2018-07-16T10:05:56.763Z,29.53
2018-07-16T10:08:26.152Z,29.27
2018-07-16T10:10:55.419Z,29.39
2018-07-16T10:13:24.769Z,29.49
2018-07-16T10:15:54.142Z,30.74
2018-07-16T10:18:23.728Z,30.04
2018-07-16T10:20:53.259Z,29.51
2018-07-16T10:23:23.832Z,29.04
2018-07-16T10:25:53.368Z,31.22
2018-07-16T10:28:22.970Z,30.49
2018-07-16T10:30:52.164Z,30.78
2018-07-16T10:33:21.579Z,32.83
2018-07-16T10:35:50.809Z,33.55
2018-07-16T10:38:20.056Z,35.84
2018-07-16T10:40:49.822Z,31.81
2018-07-16T10:43:19.383Z,30.54
2018-07-16T10:45:49.039Z,30.15
2018-07-16T10:48:18.358Z,29.68
2018-07-16T10:50:47.528Z,30.72
2018-07-16T10:53:16.754Z,30.97
2018-07-16T10:55:46.021Z,31.53
2018-07-16T10:58:17.217Z,30.92
2018-07-16T11:00:47.505Z,31.25
2018-07-16T11:03:16.914Z,32.12
2018-07-16T11:05:46.179Z,30.39
2018-07-16T11:08:15.565Z,32.30
2018-07-16T11:10:45.048Z,32.69
2018-07-16T11:13:14.473Z,31.73
2018-07-16T11:15:43.816Z,33.15
2018-07-16T11:18:13.138Z,33.92
2018-07-16T11:20:42.294Z,32.36
2018-07-16T11:23:11.761Z,33.43
2018-07-16T11:25:41.214Z,33.39
2018-07-16T11:28:10.573Z,30.88
2018-07-16T11:30:39.730Z,31.55
2018-07-16T11:33:09.183Z,30.58
2018-07-16T11:35:38.572Z,31.97
2018-07-16T11:38:07.952Z,33.38
2018-07-16T11:40:37.326Z,34.10
2018-07-16T11:43:06.582Z,33.39
2018-07-16T11:45:35.848Z,34.25
2018-07-16T11:48:05.055Z,33.01
2018-07-16T11:50:34.223Z,31.66
2018-07-16T11:53:03.915Z,33.20
2018-07-16T11:55:33.382Z,33.90
2018-07-16T11:58:03.023Z,33.23
2018-07-16T12:00:32.234Z,34.79
2018-07-16T12:03:01.587Z,34.16
2018-07-16T12:05:31.258Z,34.47
2018-07-16T12:08:00.803Z,35.08
2018-07-16T12:10:30.170Z,35.53
2018-07-16T12:12:59.534Z,34.38
2018-07-16T12:15:28.886Z,33.21
2018-07-16T12:17:58.309Z,35.28
2018-07-16T12:20:27.509Z,32.26
2018-07-16T12:22:56.911Z,32.05
2018-07-16T12:25:26.156Z,33.69
2018-07-16T12:27:55.434Z,35.10
2018-07-16T12:30:25.242Z,35.22
2018-07-16T12:32:55.798Z,34.56
2018-07-16T12:35:25.612Z,32.34
2018-07-16T12:37:55.144Z,31.47
2018-07-16T12:40:24.614Z,32.73
2018-07-16T12:42:54.147Z,31.68
2018-07-16T12:45:23.739Z,31.41
2018-07-16T12:47:53.598Z,31.20
2018-07-16T12:50:23.157Z,30.68
2018-07-16T12:52:53.115Z,30.88
2018-07-16T12:55:22.940Z,30.21
2018-07-16T12:57:52.623Z,31.08
2018-07-16T13:00:22.097Z,32.20
2018-07-16T13:02:51.567Z,31.30
2018-07-16T13:05:20.991Z,31.43
2018-07-16T13:07:50.431Z,32.39
2018-07-16T13:10:19.805Z,33.06
2018-07-16T13:12:49.338Z,33.14
2018-07-16T13:15:18.656Z,32.85
2018-07-16T13:17:47.966Z,32.48
2018-07-16T13:20:17.244Z,32.43
2018-07-16T13:22:46.578Z,32.57
2018-07-16T13:25:15.954Z,32.79
2018-07-16T13:27:45.354Z,32.77
2018-07-16T13:30:14.627Z,32.65
2018-07-16T13:32:43.987Z,32.35
2018-07-16T13:35:13.373Z,31.93
2018-07-16T13:38:13.912Z,32.06
2018-07-16T13:40:43.354Z,31.98
2018-07-16T13:43:12.711Z,32.39
2018-07-16T13:45:41.971Z,31.21
2018-07-16T13:48:11.237Z,31.86
2018-07-16T13:50:40.661Z,32.47
2018-07-16T13:53:10.182Z,32.82
2018-07-16T13:55:39.796Z,32.98
2018-07-16T13:58:09.311Z,33.15
2018-07-16T14:00:38.882Z,32.26
2018-07-16T14:03:08.347Z,32.94
2018-07-16T14:05:37.915Z,32.96
2018-07-16T14:08:07.577Z,33.22
2018-07-16T14:10:37.125Z,33.32
2018-07-16T14:13:07.035Z,33.53
2018-07-16T14:15:36.261Z,33.62
2018-07-16T14:18:06.009Z,33.90
2018-07-16T14:20:35.469Z,33.42
2018-07-16T14:23:04.897Z,33.35
2018-07-16T14:25:34.654Z,33.53
2018-07-16T14:28:03.913Z,33.44
2018-07-16T14:30:33.203Z,33.56
2018-07-16T14:33:02.602Z,33.48
2018-07-16T14:35:32.030Z,33.24
2018-07-16T14:38:01.414Z,33.24
2018-07-16T14:40:30.734Z,33.37
2018-07-16T14:43:00.020Z,33.34
2018-07-16T14:45:29.330Z,33.35
2018-07-16T14:47:58.491Z,33.62
2018-07-16T14:50:27.720Z,33.93
2018-07-16T14:52:57.091Z,34.10
2018-07-16T14:55:26.434Z,34.62
2018-07-16T14:57:55.817Z,34.52
2018-07-16T15:00:26.403Z,34.58
2018-07-16T15:02:55.936Z,34.74
2018-07-16T15:05:25.383Z,34.86
2018-07-16T15:07:54.762Z,34.86
2018-07-16T15:10:24.158Z,35.68
2018-07-16T15:12:53.569Z,35.90
2018-07-16T15:15:23.110Z,35.51
2018-07-16T15:17:52.343Z,35.37
2018-07-16T15:20:21.781Z,35.89
2018-07-16T15:22:51.153Z,36.19
2018-07-16T15:25:20.719Z,36.58
2018-07-16T15:27:49.984Z,36.43
2018-07-16T15:30:19.401Z,34.56
2018-07-16T15:32:48.891Z,34.43
2018-07-16T15:35:18.211Z,35.05
2018-07-16T15:37:47.553Z,32.13
2018-07-16T15:40:16.584Z,32.17
2018-07-16T15:42:46.141Z,32.54
2018-07-16T15:45:15.158Z,32.74
2018-07-16T15:47:44.378Z,32.77
2018-07-16T15:50:13.837Z,34.28
2018-07-16T15:52:43.185Z,35.03
2018-07-16T15:55:12.499Z,35.86
2018-07-16T15:57:41.760Z,34.97
2018-07-16T16:00:11.625Z,35.02
2018-07-16T16:02:40.925Z,34.85
2018-07-16T16:05:10.315Z,34.97
2018-07-16T16:07:39.674Z,35.53
2018-07-16T16:10:08.910Z,34.99
2018-07-16T16:12:38.194Z,34.40
2018-07-16T16:15:07.535Z,34.72
2018-07-16T16:17:36.851Z,34.85
2018-07-16T16:20:06.481Z,34.65
2018-07-16T16:22:35.720Z,34.90
2018-07-16T16:25:05.032Z,34.67
2018-07-16T16:27:34.288Z,33.79
2018-07-16T16:30:03.624Z,34.03
2018-07-16T16:32:32.875Z,34.05
2018-07-16T16:35:02.123Z,34.06
2018-07-16T16:37:31.537Z,34.06
2018-07-16T16:40:00.817Z,33.95
2018-07-16T16:42:30.318Z,33.76
2018-07-16T16:44:59.655Z,34.02
2018-07-16T16:47:28.917Z,34.05
2018-07-16T16:49:59.420Z,34.14
2018-07-16T16:52:28.785Z,34.30
2018-07-16T16:54:58.165Z,34.41
2018-07-16T16:57:27.539Z,34.43
2018-07-16T16:59:56.894Z,34.32
2018-07-16T17:02:26.543Z,34.28
2018-07-16T17:04:55.907Z,34.23
2018-07-16T17:07:25.163Z,34.32
2018-07-16T17:09:54.511Z,34.26
2018-07-16T17:12:23.763Z,33.81
2018-07-16T17:14:53.083Z,34.01
2018-07-16T17:17:22.470Z,33.97
2018-07-16T17:19:51.805Z,33.96
2018-07-16T17:22:21.185Z,33.98
2018-07-16T17:24:50.542Z,34.10
2018-07-16T17:27:19.869Z,33.63
2018-07-16T17:29:49.208Z,33.62
2018-07-16T17:32:18.674Z,33.38
2018-07-16T17:34:48.056Z,33.57
2018-07-16T17:37:17.314Z,33.51
2018-07-16T17:39:46.634Z,33.35
2018-07-16T17:42:15.912Z,33.30
2018-07-16T17:44:45.246Z,33.38
2018-07-16T17:47:14.523Z,33.49
2018-07-16T17:49:44.485Z,33.45
2018-07-16T17:52:13.998Z,33.53
2018-07-16T17:54:43.583Z,33.55
2018-07-16T17:57:12.821Z,33.59
2018-07-16T17:59:42.164Z,33.56
2018-07-16T18:02:11.516Z,33.50
2018-07-16T18:04:40.944Z,33.54
2018-07-16T18:07:10.363Z,33.46
2018-07-16T18:09:39.746Z,33.52
2018-07-16T18:12:09.074Z,33.38
2018-07-16T18:14:38.332Z,33.45
2018-07-16T18:17:07.679Z,33.54
2018-07-16T18:19:37.254Z,33.55
2018-07-16T18:22:06.554Z,33.40
2018-07-16T18:24:35.842Z,33.39
2018-07-16T18:27:05.172Z,33.35
2018-07-16T18:29:34.433Z,33.30
2018-07-16T18:32:03.849Z,33.23
2018-07-16T18:34:33.131Z,33.13
2018-07-16T18:37:02.382Z,33.08
2018-07-16T18:39:31.631Z,33.02
2018-07-16T18:42:00.907Z,32.88
2018-07-16T18:44:30.155Z,32.61
2018-07-16T18:46:59.585Z,32.60
2018-07-16T18:49:28.963Z,32.50
2018-07-16T18:51:58.173Z,32.42
2018-07-16T18:54:27.539Z,32.28
2018-07-16T18:56:56.875Z,32.21
2018-07-16T18:59:26.260Z,32.03
2018-07-16T19:01:56.886Z,31.76
2018-07-16T19:04:26.214Z,31.27
2018-07-16T19:06:59.555Z,30.82
2018-07-16T19:09:28.838Z,31.01
2018-07-16T19:11:58.114Z,31.08
2018-07-16T19:14:27.495Z,30.94
2018-07-16T19:16:56.828Z,30.72
2018-07-16T19:19:26.293Z,30.54
2018-07-16T19:21:55.742Z,30.61
2018-07-16T19:24:25.092Z,30.57
2018-07-16T19:26:54.430Z,30.44
2018-07-16T19:29:23.694Z,29.64
2018-07-16T19:31:52.927Z,29.58
2018-07-16T19:34:22.198Z,29.08
2018-07-16T19:36:51.639Z,29.48
2018-07-16T19:39:21.414Z,29.75
2018-07-16T19:41:51.251Z,29.86
2018-07-16T19:44:20.542Z,29.94
2018-07-16T19:46:50.263Z,30.00
2018-07-16T19:49:19.646Z,30.03
2018-07-16T19:51:49.179Z,30.02
2018-07-16T19:54:18.552Z,30.02
2018-07-16T19:56:47.807Z,30.00
2018-07-16T19:59:17.144Z,29.97
2018-07-16T20:01:46.370Z,29.90
2018-07-16T20:04:15.652Z,29.71
2018-07-16T20:06:45.278Z,29.64
2018-07-16T20:09:14.652Z,29.60
2018-07-16T20:11:44.010Z,29.31
2018-07-16T20:14:13.261Z,29.16
2018-07-16T20:16:43.579Z,29.17
2018-07-16T20:19:13.142Z,29.18
2018-07-16T20:21:42.527Z,29.15
2018-07-16T20:24:11.776Z,29.13
2018-07-16T20:26:41.136Z,29.06
2018-07-16T20:29:10.361Z,29.02
2018-07-16T20:31:39.589Z,28.98
2018-07-16T20:34:08.815Z,28.87
2018-07-16T20:36:38.160Z,28.42
2018-07-16T20:39:10.175Z,27.77
2018-07-16T20:41:39.584Z,27.69
2018-07-16T20:44:08.834Z,27.82
2018-07-16T20:46:38.070Z,27.92
2018-07-16T20:49:07.466Z,28.03
2018-07-16T20:51:36.699Z,28.04
2018-07-16T20:54:05.942Z,28.04
2018-07-16T20:56:35.183Z,27.91
2018-07-16T20:59:04.426Z,27.73
2018-07-16T21:01:34.003Z,27.72
2018-07-16T21:04:03.256Z,26.99
2018-07-16T21:06:32.555Z,27.13
2018-07-16T21:09:01.849Z,27.34
2018-07-16T21:11:31.190Z,27.45
2018-07-16T21:14:00.610Z,27.47
2018-07-16T21:16:30.477Z,27.53
2018-07-16T21:18:59.815Z,27.54
2018-07-16T21:21:29.312Z,27.56
2018-07-16T21:23:58.517Z,27.58
2018-07-16T21:26:27.826Z,27.56
2018-07-16T21:28:57.186Z,27.46
2018-07-16T21:31:26.342Z,27.25
2018-07-16T21:33:55.899Z,27.18
2018-07-16T21:36:25.075Z,27.19
2018-07-16T21:38:58.622Z,27.16
2018-07-16T21:41:28.524Z,27.16
2018-07-16T21:43:57.770Z,27.14
2018-07-16T21:46:26.993Z,26.32
2018-07-16T21:48:56.337Z,26.54
2018-07-16T21:51:25.639Z,26.57
2018-07-16T21:53:55.037Z,25.68
2018-07-16T21:56:24.422Z,25.42
2018-07-16T21:58:53.622Z,25.63
2018-07-16T22:01:23.002Z,25.90
2018-07-16T22:03:52.161Z,25.78
2018-07-16T22:06:21.411Z,26.06
2018-07-16T22:08:50.771Z,26.19
2018-07-16T22:11:20.130Z,26.31
2018-07-16T22:13:49.531Z,26.36
2018-07-16T22:16:19.078Z,26.39
2018-07-16T22:18:48.359Z,26.37
2018-07-16T22:21:17.644Z,26.38
2018-07-16T22:23:47.056Z,26.36
2018-07-16T22:26:16.309Z,26.32
2018-07-16T22:28:45.579Z,26.28
2018-07-16T22:31:14.808Z,26.29
2018-07-16T22:33:44.036Z,26.29
2018-07-16T22:36:13.419Z,26.30
2018-07-16T22:38:42.666Z,26.26
2018-07-16T22:41:12.125Z,26.21
2018-07-16T22:43:41.352Z,26.17
2018-07-16T22:46:10.654Z,26.10
2018-07-16T22:48:40.077Z,26.08
2018-07-16T22:51:09.346Z,26.04
2018-07-16T22:53:38.762Z,26.00
2018-07-16T22:56:08.119Z,25.94
2018-07-16T22:58:37.463Z,25.89
2018-07-16T23:01:06.812Z,25.87
2018-07-16T23:03:36.169Z,25.77
2018-07-16T23:06:05.565Z,25.69
2018-07-16T23:08:34.884Z,25.66
2018-07-16T23:11:04.252Z,25.60
2018-07-16T23:13:33.591Z,25.54
2018-07-16T23:16:02.999Z,25.43
2018-07-16T23:18:32.368Z,25.41
2018-07-16T23:21:01.635Z,25.31
2018-07-16T23:23:31.098Z,25.29
2018-07-16T23:26:00.238Z,25.29
2018-07-16T23:28:29.552Z,25.26
2018-07-16T23:30:58.739Z,25.23
2018-07-16T23:33:28.090Z,25.16
2018-07-16T23:35:57.487Z,25.13
2018-07-16T23:38:26.909Z,25.09
2018-07-16T23:40:56.282Z,25.05
2018-07-16T23:43:25.602Z,24.97
2018-07-16T23:45:54.942Z,24.92
2018-07-16T23:48:24.187Z,24.88
2018-07-16T23:50:53.444Z,24.87
2018-07-16T23:53:22.707Z,24.83
2018-07-16T23:55:52.065Z,24.80
2018-07-16T23:58:21.370Z,24.74
